Etusivu
METAR-TAF:

METAR-TAF

Lentoasemat :

Vinton Veterans Memorial Airpark

Vinton, Iowa, Yhdysvallat

Leveyspiiri: 42-13-07N, Pituuspiiri: 092-01-33W, korkeus merenpinnasta: 258 m

Tämänhetkinen sää

Tämä raportti tehtiin 12 minuuttia sitten, kello 17.15 UTC
Tuuli 3 kn kaakosta
Lämpötila 3°C
Kosteus 87%
Ilmanpaine 1009 hPa
Näkyvyys: 16.1 km
Pilvistä 900 ft:n korkeudessa

METAR: KVTI 181715Z AUTO 13003KT 10SM OVC009 03/01 A2979 RMK AO2 T00330008

Aika: 11:27 (17:27 UTC)


TAF: puuttuu

Säähavainnot ja -ennusteet yli 4000 lentoasemalta (METAR- ja TAF-raportit).

Käytössä olevat sääasemat on merkitty karttaan keltaisilla ja punaisilla pisteillä.

Aseta hiiri pisteen päälle nähdäksesi sääaseman nimen.

Klikkaa sitten nähdäksesi säähavainnot ja -ennusteet.

Kartan vaihtaminen: klikkaa mustalla rastilla varustettuja vihreitä pisteitä, niin voit zoomata sisään; viivalla varustettua vihreää pistettä, niin voit zoomata ulos tai vihreitä nuolia, niin pääset viereisille kartoille.


METAR-TAF: